MUVR/VRA METAR and TAF weather

Enter ICAO airport designator
Station Type Date Time Source
MUVR METAR 2021/05/14 12:50 UTC NOAA

MUVR 141250Z 02004KT 340V110 9000 FEW025 28/22 Q1017


Station Type Date Time Source
MUVR Decoded METAR 2021/05/14 12:50 UTC NOAA

Varadero, Matanzas, Cuba (MUVR) 23-08N 081-17W 3M
May 14, 2021 - 08:50 AM EDT / 2021.05.14 1250 UTC
Wind: from the NNE (020 degrees) at 5 MPH (4 KT) (direction variable):0
Visibility: 5 mile(s):0
Sky conditions: mostly clear
Temperature: 82 F (28 C)
Dew Point: 71 F (22 C)
Relative Humidity: 69%
Pressure (altimeter): 30.03 in. Hg (1017 hPa)
ob: MUVR 141250Z 02004KT 340V110 9000 FEW025 28/22 Q1017
cycle: 13

Station Type Date Time Source
MUVR TAF 2021/05/14 12:03 UTC NOAA

TAF MUVR 141100Z 1412/1512 VRB03KT 9000 SCT020
BECMG 1415/1417 03010KT
TEMPO 1421/1424 4000 TSRA FEW018CB BKN030
BECMG 1501/1503 VRB03KT

Example: see airport list